sensor_id;sensor_type;location;lat;lon;timestamp;noise_LAeq;noise_LA_min;noise_LA_max;noise_LA01;noise_LA95
61095;Laerm;20450;49.074;9.158;2023-09-12T00:02:23;46.75;45.33;48.10;;
61095;Laerm;20450;49.074;9.158;2023-09-12T00:04:50;46.50;44.87;48.05;;
61095;Laerm;20450;49.074;9.158;2023-09-12T00:07:19;46.53;44.97;49.88;;
61095;Laerm;20450;49.074;9.158;2023-09-12T00:09:48;46.77;45.42;48.29;;
61095;Laerm;20450;49.074;9.158;2023-09-12T00:12:16;46.77;45.27;48.58;;
61095;Laerm;20450;49.074;9.158;2023-09-12T00:14:43;46.75;45.36;48.28;;
61095;Laerm;20450;49.074;9.158;2023-09-12T00:17:12;46.94;45.69;48.57;;
61095;Laerm;20450;49.074;9.158;2023-09-12T00:19:39;46.78;45.39;48.48;;
61095;Laerm;20450;49.074;9.158;2023-09-12T00:22:06;46.68;45.11;48.13;;
61095;Laerm;20450;49.074;9.158;2023-09-12T00:24:35;46.63;45.11;48.13;;
61095;Laerm;20450;49.074;9.158;2023-09-12T00:27:02;46.54;45.20;47.90;;
61095;Laerm;20450;49.074;9.158;2023-09-12T00:29:29;46.74;45.20;48.48;;
61095;Laerm;20450;49.074;9.158;2023-09-12T00:31:57;46.79;45.17;48.67;;
61095;Laerm;20450;49.074;9.158;2023-09-12T00:34:26;46.65;45.14;48.37;;
61095;Laerm;20450;49.074;9.158;2023-09-12T00:36:54;46.82;45.42;48.54;;
61095;Laerm;20450;49.074;9.158;2023-09-12T00:39:22;47.25;45.63;67.40;;
61095;Laerm;20450;49.074;9.158;2023-09-12T00:41:50;47.28;45.60;50.19;;
61095;Laerm;20450;49.074;9.158;2023-09-12T00:44:17;47.22;45.91;48.84;;
61095;Laerm;20450;49.074;9.158;2023-09-12T00:46:46;46.96;45.60;48.39;;
61095;Laerm;20450;49.074;9.158;2023-09-12T00:49:17;46.96;45.42;48.43;;
61095;Laerm;20450;49.074;9.158;2023-09-12T00:51:46;46.76;45.23;48.32;;
61095;Laerm;20450;49.074;9.158;2023-09-12T00:54:13;46.78;45.39;48.21;;
61095;Laerm;20450;49.074;9.158;2023-09-12T00:56:41;46.56;45.39;47.91;;
61095;Laerm;20450;49.074;9.158;2023-09-12T00:59:11;46.43;45.01;49.12;;
61095;Laerm;20450;49.074;9.158;2023-09-12T01:01:39;46.56;45.04;48.15;;
61095;Laerm;20450;49.074;9.158;2023-09-12T01:04:07;46.93;45.54;48.40;;
61095;Laerm;20450;49.074;9.158;2023-09-12T01:06:51;47.04;45.33;48.77;;
61095;Laerm;20450;49.074;9.158;2023-09-12T01:09:22;46.85;45.33;48.63;;
61095;Laerm;20450;49.074;9.158;2023-09-12T01:11:50;46.79;45.36;48.25;;
61095;Laerm;20450;49.074;9.158;2023-09-12T01:14:19;46.66;44.94;48.61;;
61095;Laerm;20450;49.074;9.158;2023-09-12T01:16:49;46.34;45.17;47.68;;
61095;Laerm;20450;49.074;9.158;2023-09-12T01:19:18;46.04;44.87;47.36;;
61095;Laerm;20450;49.074;9.158;2023-09-12T01:22:26;46.05;44.76;47.50;;
61095;Laerm;20450;49.074;9.158;2023-09-12T01:28:15;46.17;44.76;47.57;;
61095;Laerm;20450;49.074;9.158;2023-09-12T01:30:48;46.10;44.94;47.46;;
61095;Laerm;20450;49.074;9.158;2023-09-12T01:33:16;46.22;44.54;50.44;;
61095;Laerm;20450;49.074;9.158;2023-09-12T01:35:44;46.21;44.87;47.59;;
61095;Laerm;20450;49.074;9.158;2023-09-12T01:38:11;46.50;44.90;48.36;;
61095;Laerm;20450;49.074;9.158;2023-09-12T01:40:47;46.09;44.65;47.38;;
61095;Laerm;20450;49.074;9.158;2023-09-12T01:43:25;46.51;45.20;48.02;;
61095;Laerm;20450;49.074;9.158;2023-09-12T01:45:57;46.21;44.90;47.67;;
61095;Laerm;20450;49.074;9.158;2023-09-12T01:48:33;46.18;44.62;47.54;;
61095;Laerm;20450;49.074;9.158;2023-09-12T01:51:05;46.62;45.17;48.26;;
61095;Laerm;20450;49.074;9.158;2023-09-12T01:53:34;46.38;45.04;47.65;;
61095;Laerm;20450;49.074;9.158;2023-09-12T01:56:03;45.97;44.58;47.38;;
61095;Laerm;20450;49.074;9.158;2023-09-12T01:58:32;45.77;44.27;47.32;;
61095;Laerm;20450;49.074;9.158;2023-09-12T02:01:00;45.58;44.03;46.91;;
61095;Laerm;20450;49.074;9.158;2023-09-12T02:03:30;45.73;44.15;47.17;;
61095;Laerm;20450;49.074;9.158;2023-09-12T02:05:57;45.93;44.11;47.30;;
61095;Laerm;20450;49.074;9.158;2023-09-12T02:08:25;45.72;44.31;47.20;;
61095;Laerm;20450;49.074;9.158;2023-09-12T02:10:53;46.28;44.83;47.70;;
61095;Laerm;20450;49.074;9.158;2023-09-12T02:13:20;46.71;45.27;48.23;;
61095;Laerm;20450;49.074;9.158;2023-09-12T02:15:49;46.45;44.76;48.15;;
61095;Laerm;20450;49.074;9.158;2023-09-12T02:18:16;46.54;44.69;51.44;;
61095;Laerm;20450;49.074;9.158;2023-09-12T02:20:44;46.25;44.80;47.77;;
61095;Laerm;20450;49.074;9.158;2023-09-12T02:23:11;46.20;44.47;47.54;;
61095;Laerm;20450;49.074;9.158;2023-09-12T02:25:38;46.11;44.69;47.70;;
61095;Laerm;20450;49.074;9.158;2023-09-12T02:28:06;46.09;44.80;47.61;;
61095;Laerm;20450;49.074;9.158;2023-09-12T02:30:33;46.30;44.73;48.95;;
61095;Laerm;20450;49.074;9.158;2023-09-12T02:33:02;45.54;43.99;46.87;;
61095;Laerm;20450;49.074;9.158;2023-09-12T02:35:30;45.29;43.94;46.73;;
61095;Laerm;20450;49.074;9.158;2023-09-12T02:37:57;45.28;44.03;46.76;;
61095;Laerm;20450;49.074;9.158;2023-09-12T02:40:24;45.46;43.99;46.87;;
61095;Laerm;20450;49.074;9.158;2023-09-12T02:42:52;45.68;44.31;47.16;;
61095;Laerm;20450;49.074;9.158;2023-09-12T02:45:20;45.52;44.07;47.22;;
61095;Laerm;20450;49.074;9.158;2023-09-12T02:47:47;45.75;44.11;47.46;;
61095;Laerm;20450;49.074;9.158;2023-09-12T02:50:17;45.88;44.31;47.77;;
61095;Laerm;20450;49.074;9.158;2023-09-12T02:52:44;45.28;43.99;49.43;;
61095;Laerm;20450;49.074;9.158;2023-09-12T02:55:12;45.13;43.94;46.92;;
61095;Laerm;20450;49.074;9.158;2023-09-12T02:57:40;45.10;43.68;47.00;;
61095;Laerm;20450;49.074;9.158;2023-09-12T03:00:08;44.88;43.39;46.35;;
61095;Laerm;20450;49.074;9.158;2023-09-12T03:02:36;44.34;43.09;45.66;;
61095;Laerm;20450;49.074;9.158;2023-09-12T03:05:04;44.42;42.93;45.89;;
61095;Laerm;20450;49.074;9.158;2023-09-12T03:07:33;44.53;43.14;45.66;;
61095;Laerm;20450;49.074;9.158;2023-09-12T03:10:02;44.62;43.34;46.02;;
61095;Laerm;20450;49.074;9.158;2023-09-12T03:12:29;45.46;43.63;52.99;;
61095;Laerm;20450;49.074;9.158;2023-09-12T03:14:57;45.08;43.68;48.28;;
61095;Laerm;20450;49.074;9.158;2023-09-12T03:17:25;45.17;43.94;48.31;;
61095;Laerm;20450;49.074;9.158;2023-09-12T03:19:56;45.05;43.72;47.00;;
61095;Laerm;20450;49.074;9.158;2023-09-12T03:22:23;45.03;43.63;46.43;;
61095;Laerm;20450;49.074;9.158;2023-09-12T03:24:51;44.37;43.09;45.69;;
61095;Laerm;20450;49.074;9.158;2023-09-12T03:27:19;43.94;42.71;45.57;;
61095;Laerm;20450;49.074;9.158;2023-09-12T03:29:47;44.04;42.71;47.04;;
61095;Laerm;20450;49.074;9.158;2023-09-12T03:32:14;44.44;42.59;52.47;;
61095;Laerm;20450;49.074;9.158;2023-09-12T03:34:41;44.29;43.04;45.89;;
61095;Laerm;20450;49.074;9.158;2023-09-12T03:37:09;43.87;42.47;45.36;;
61095;Laerm;20450;49.074;9.158;2023-09-12T03:39:36;43.97;42.59;46.62;;
61095;Laerm;20450;49.074;9.158;2023-09-12T03:42:07;43.75;42.29;45.04;;
61095;Laerm;20450;49.074;9.158;2023-09-12T03:44:34;43.98;42.65;46.59;;
61095;Laerm;20450;49.074;9.158;2023-09-12T03:47:02;44.56;42.65;55.33;;
61095;Laerm;20450;49.074;9.158;2023-09-12T03:49:32;44.06;42.59;45.89;;
61095;Laerm;20450;49.074;9.158;2023-09-12T03:51:59;43.97;42.35;46.73;;
61095;Laerm;20450;49.074;9.158;2023-09-12T03:54:26;43.81;42.35;47.39;;
61095;Laerm;20450;49.074;9.158;2023-09-12T03:56:54;43.48;42.13;45.91;;
61095;Laerm;20450;49.074;9.158;2023-09-12T03:59:24;43.45;41.89;45.33;;
61095;Laerm;20450;49.074;9.158;2023-09-12T04:01:51;43.67;42.16;46.48;;
61095;Laerm;20450;49.074;9.158;2023-09-12T04:04:19;43.53;41.82;48.70;;
61095;Laerm;20450;49.074;9.158;2023-09-12T04:06:48;43.52;41.75;51.08;;
61095;Laerm;20450;49.074;9.158;2023-09-12T04:09:15;43.30;41.53;46.48;;
61095;Laerm;20450;49.074;9.158;2023-09-12T04:11:43;43.39;41.22;46.89;;
61095;Laerm;20450;49.074;9.158;2023-09-12T04:14:15;43.57;40.80;45.54;;
61095;Laerm;20450;49.074;9.158;2023-09-12T04:16:46;43.70;41.82;46.40;;
61095;Laerm;20450;49.074;9.158;2023-09-12T04:19:14;43.85;41.96;52.30;;
61095;Laerm;20450;49.074;9.158;2023-09-12T04:21:41;43.34;41.53;49.70;;
61095;Laerm;20450;49.074;9.158;2023-09-12T04:24:10;43.75;41.22;51.41;;
61095;Laerm;20450;49.074;9.158;2023-09-12T04:26:39;43.73;42.03;47.26;;
61095;Laerm;20450;49.074;9.158;2023-09-12T04:29:07;43.20;41.22;55.13;;
61095;Laerm;20450;49.074;9.158;2023-09-12T04:31:34;43.40;41.30;48.43;;
61095;Laerm;20450;49.074;9.158;2023-09-12T04:34:02;43.56;41.53;49.10;;
61095;Laerm;20450;49.074;9.158;2023-09-12T04:36:29;44.01;41.89;53.47;;
61095;Laerm;20450;49.074;9.158;2023-09-12T04:38:57;42.43;40.13;43.94;;
61095;Laerm;20450;49.074;9.158;2023-09-12T04:41:24;44.59;42.29;50.89;;
61095;Laerm;20450;49.074;9.158;2023-09-12T04:43:51;45.76;43.58;50.99;;
61095;Laerm;20450;49.074;9.158;2023-09-12T04:46:18;46.32;44.11;48.10;;
61095;Laerm;20450;49.074;9.158;2023-09-12T04:48:46;46.02;43.58;56.39;;
61095;Laerm;20450;49.074;9.158;2023-09-12T04:51:15;46.39;44.27;52.08;;
61095;Laerm;20450;49.074;9.158;2023-09-12T04:53:42;47.07;44.83;64.01;;
61095;Laerm;20450;49.074;9.158;2023-09-12T04:56:10;45.59;43.29;49.32;;
61095;Laerm;20450;49.074;9.158;2023-09-12T04:58:39;44.05;41.38;48.21;;
61095;Laerm;20450;49.074;9.158;2023-09-12T05:01:10;43.50;41.14;52.10;;
61095;Laerm;20450;49.074;9.158;2023-09-12T05:03:37;44.62;42.22;57.93;;
61095;Laerm;20450;49.074;9.158;2023-09-12T05:06:04;43.86;40.71;50.51;;
61095;Laerm;20450;49.074;9.158;2023-09-12T05:08:33;44.50;42.82;49.45;;
61095;Laerm;20450;49.074;9.158;2023-09-12T05:11:00;45.57;42.98;52.76;;
61095;Laerm;20450;49.074;9.158;2023-09-12T05:13:27;44.09;40.23;51.03;;
61095;Laerm;20450;49.074;9.158;2023-09-12T05:15:53;45.12;41.82;51.48;;
61095;Laerm;20450;49.074;9.158;2023-09-12T05:18:21;43.60;39.34;49.96;;
61095;Laerm;20450;49.074;9.158;2023-09-12T05:20:48;43.07;40.71;49.18;;
61095;Laerm;20450;49.074;9.158;2023-09-12T05:23:17;44.52;41.68;56.74;;
61095;Laerm;20450;49.074;9.158;2023-09-12T05:25:46;45.06;43.19;50.24;;
61095;Laerm;20450;49.074;9.158;2023-09-12T05:28:19;44.06;42.41;50.15;;
61095;Laerm;20450;49.074;9.158;2023-09-12T05:30:54;44.39;41.82;50.14;;
61095;Laerm;20450;49.074;9.158;2023-09-12T05:33:24;43.22;41.46;47.46;;
61095;Laerm;20450;49.074;9.158;2023-09-12T05:35:54;43.79;41.53;54.24;;
61095;Laerm;20450;49.074;9.158;2023-09-12T05:38:21;43.51;40.80;58.86;;
61095;Laerm;20450;49.074;9.158;2023-09-12T05:40:55;43.74;41.30;49.95;;
61095;Laerm;20450;49.074;9.158;2023-09-12T05:43:24;45.58;42.03;53.55;;
61095;Laerm;20450;49.074;9.158;2023-09-12T05:45:53;46.17;43.39;50.00;;
61095;Laerm;20450;49.074;9.158;2023-09-12T05:48:23;48.19;46.07;53.76;;
61095;Laerm;20450;49.074;9.158;2023-09-12T05:50:51;46.95;44.65;53.07;;
61095;Laerm;20450;49.074;9.158;2023-09-12T05:53:20;47.37;45.54;50.33;;
61095;Laerm;20450;49.074;9.158;2023-09-12T05:55:50;47.60;45.30;55.78;;
61095;Laerm;20450;49.074;9.158;2023-09-12T05:58:18;46.45;44.39;54.27;;
61095;Laerm;20450;49.074;9.158;2023-09-12T06:00:47;46.23;43.14;59.76;;
61095;Laerm;20450;49.074;9.158;2023-09-12T06:03:21;44.68;42.88;49.12;;
61095;Laerm;20450;49.074;9.158;2023-09-12T06:05:49;46.28;43.24;64.00;;
61095;Laerm;20450;49.074;9.158;2023-09-12T06:08:17;44.90;43.14;51.41;;
61095;Laerm;20450;49.074;9.158;2023-09-12T06:10:44;45.55;42.22;52.67;;
61095;Laerm;20450;49.074;9.158;2023-09-12T06:13:12;46.55;40.96;63.66;;
61095;Laerm;20450;49.074;9.158;2023-09-12T06:15:40;42.23;39.34;51.93;;
61095;Laerm;20450;49.074;9.158;2023-09-12T06:18:07;42.70;40.13;53.01;;
61095;Laerm;20450;49.074;9.158;2023-09-12T06:20:35;41.97;39.46;47.63;;
61095;Laerm;20450;49.074;9.158;2023-09-12T06:23:03;44.03;41.30;51.87;;
61095;Laerm;20450;49.074;9.158;2023-09-12T06:25:30;43.79;41.53;59.13;;
61095;Laerm;20450;49.074;9.158;2023-09-12T06:27:58;45.38;41.22;59.28;;
61095;Laerm;20450;49.074;9.158;2023-09-12T06:30:26;43.88;41.14;55.96;;
61095;Laerm;20450;49.074;9.158;2023-09-12T06:32:54;43.75;40.98;58.18;;
61095;Laerm;20450;49.074;9.158;2023-09-12T06:35:21;42.76;39.70;51.42;;
61095;Laerm;20450;49.074;9.158;2023-09-12T06:37:49;42.54;40.13;56.19;;
61095;Laerm;20450;49.074;9.158;2023-09-12T06:40:16;42.57;39.21;52.85;;
61095;Laerm;20450;49.074;9.158;2023-09-12T06:42:44;43.03;40.43;47.42;;
61095;Laerm;20450;49.074;9.158;2023-09-12T06:45:11;42.73;40.23;50.29;;
61095;Laerm;20450;49.074;9.158;2023-09-12T06:47:40;43.48;40.13;53.26;;
61095;Laerm;20450;49.074;9.158;2023-09-12T06:50:08;43.06;40.98;48.05;;
61095;Laerm;20450;49.074;9.158;2023-09-12T06:52:41;42.72;39.70;53.36;;
61095;Laerm;20450;49.074;9.158;2023-09-12T06:55:09;43.61;40.98;49.73;;
61095;Laerm;20450;49.074;9.158;2023-09-12T06:58:00;44.45;40.98;56.20;;
61095;Laerm;20450;49.074;9.158;2023-09-12T07:00:28;44.20;42.22;50.22;;
61095;Laerm;20450;49.074;9.158;2023-09-12T07:03:00;43.48;40.62;52.77;;
61095;Laerm;20450;49.074;9.158;2023-09-12T07:05:29;44.52;42.35;54.94;;
61095;Laerm;20450;49.074;9.158;2023-09-12T07:07:56;44.40;41.38;60.70;;
61095;Laerm;20450;49.074;9.158;2023-09-12T07:10:37;44.24;40.98;53.61;;
61095;Laerm;20450;49.074;9.158;2023-09-12T07:13:06;42.64;39.81;48.13;;
61095;Laerm;20450;49.074;9.158;2023-09-12T07:15:41;43.47;41.38;49.89;;
61095;Laerm;20450;49.074;9.158;2023-09-12T07:18:17;43.33;39.08;61.69;;
61095;Laerm;20450;49.074;9.158;2023-09-12T07:21:07;42.36;39.58;49.59;;
61095;Laerm;20450;49.074;9.158;2023-09-12T07:23:44;42.61;39.70;54.37;;
61095;Laerm;20450;49.074;9.158;2023-09-12T07:26:15;42.57;38.52;56.99;;
61095;Laerm;20450;49.074;9.158;2023-09-12T07:28:43;42.05;38.52;46.93;;
61095;Laerm;20450;49.074;9.158;2023-09-12T07:31:16;42.98;39.70;49.65;;
61095;Laerm;20450;49.074;9.158;2023-09-12T07:33:52;43.13;40.62;45.69;;
61095;Laerm;20450;49.074;9.158;2023-09-12T07:36:21;43.12;40.27;51.17;;
61095;Laerm;20450;49.074;9.158;2023-09-12T07:38:52;42.99;39.46;46.78;;
61095;Laerm;20450;49.074;9.158;2023-09-12T07:41:21;42.97;39.34;52.88;;
61095;Laerm;20450;49.074;9.158;2023-09-12T07:44:21;42.37;39.08;49.77;;
61095;Laerm;20450;49.074;9.158;2023-09-12T07:46:51;42.58;39.34;53.04;;
61095;Laerm;20450;49.074;9.158;2023-09-12T07:49:20;42.69;39.08;51.47;;
61095;Laerm;20450;49.074;9.158;2023-09-12T07:51:52;43.54;40.33;49.27;;
61095;Laerm;20450;49.074;9.158;2023-09-12T07:54:23;43.85;41.89;59.07;;
61095;Laerm;20450;49.074;9.158;2023-09-12T07:57:03;43.46;41.22;56.68;;
61095;Laerm;20450;49.074;9.158;2023-09-12T07:59:36;43.95;39.34;47.88;;
61095;Laerm;20450;49.074;9.158;2023-09-12T08:02:09;42.96;39.34;47.28;;
61095;Laerm;20450;49.074;9.158;2023-09-12T08:04:59;42.36;39.21;54.08;;
61095;Laerm;20450;49.074;9.158;2023-09-12T08:07:26;43.78;40.23;53.90;;
61095;Laerm;20450;49.074;9.158;2023-09-12T08:09:58;44.93;41.14;55.28;;
61095;Laerm;20450;49.074;9.158;2023-09-12T08:12:30;43.65;41.61;50.55;;
61095;Laerm;20450;49.074;9.158;2023-09-12T08:15:10;43.99;40.62;61.87;;
61095;Laerm;20450;49.074;9.158;2023-09-12T08:17:39;43.94;41.06;56.87;;
61095;Laerm;20450;49.074;9.158;2023-09-12T08:20:09;43.23;39.92;50.31;;
61095;Laerm;20450;49.074;9.158;2023-09-12T08:22:40;43.21;39.92;53.30;;
61095;Laerm;20450;49.074;9.158;2023-09-12T08:25:08;42.81;39.08;46.80;;
61095;Laerm;20450;49.074;9.158;2023-09-12T08:27:59;44.96;40.33;56.16;;
61095;Laerm;20450;49.074;9.158;2023-09-12T08:30:35;42.90;40.03;52.76;;
61095;Laerm;20450;49.074;9.158;2023-09-12T08:33:05;44.23;41.61;50.64;;
61095;Laerm;20450;49.074;9.158;2023-09-12T08:35:34;43.39;39.58;53.72;;
61095;Laerm;20450;49.074;9.158;2023-09-12T08:38:07;43.06;40.03;55.42;;
61095;Laerm;20450;49.074;9.158;2023-09-12T08:40:34;43.87;40.13;55.60;;
61095;Laerm;20450;49.074;9.158;2023-09-12T08:43:03;41.91;39.21;55.52;;
61095;Laerm;20450;49.074;9.158;2023-09-12T08:45:31;42.32;39.34;48.55;;
61095;Laerm;20450;49.074;9.158;2023-09-12T08:48:01;42.69;38.95;47.48;;
61095;Laerm;20450;49.074;9.158;2023-09-12T08:50:30;42.82;38.95;52.56;;
61095;Laerm;20450;49.074;9.158;2023-09-12T08:53:02;42.57;39.23;50.15;;
61095;Laerm;20450;49.074;9.158;2023-09-12T08:55:35;42.45;39.34;54.29;;
61095;Laerm;20450;49.074;9.158;2023-09-12T08:58:06;42.22;37.88;48.78;;
61095;Laerm;20450;49.074;9.158;2023-09-12T09:00:34;43.13;39.92;61.47;;
61095;Laerm;20450;49.074;9.158;2023-09-12T09:03:07;43.25;39.58;50.12;;
61095;Laerm;20450;49.074;9.158;2023-09-12T09:05:36;43.23;39.58;55.24;;
61095;Laerm;20450;49.074;9.158;2023-09-12T09:08:21;43.26;40.03;49.35;;
61095;Laerm;20450;49.074;9.158;2023-09-12T09:11:01;44.65;39.46;56.93;;
61095;Laerm;20450;49.074;9.158;2023-09-12T09:13:41;42.90;39.34;53.77;;
61095;Laerm;20450;49.074;9.158;2023-09-12T09:16:13;43.81;40.03;53.73;;
61095;Laerm;20450;49.074;9.158;2023-09-12T09:18:52;43.61;40.71;50.51;;
61095;Laerm;20450;49.074;9.158;2023-09-12T09:21:23;44.35;41.26;52.65;;
61095;Laerm;20450;49.074;9.158;2023-09-12T09:23:54;42.99;40.62;52.28;;
61095;Laerm;20450;49.074;9.158;2023-09-12T09:26:22;43.37;40.13;54.33;;
61095;Laerm;20450;49.074;9.158;2023-09-12T09:29:03;42.78;40.13;52.25;;
61095;Laerm;20450;49.074;9.158;2023-09-12T09:31:33;42.59;39.46;51.82;;
61095;Laerm;20450;49.074;9.158;2023-09-12T09:34:17;43.04;39.70;50.25;;
61095;Laerm;20450;49.074;9.158;2023-09-12T09:36:49;43.00;39.34;50.19;;
61095;Laerm;20450;49.074;9.158;2023-09-12T09:39:20;44.45;38.81;64.75;;
61095;Laerm;20450;49.074;9.158;2023-09-12T09:41:48;43.23;38.81;66.03;;
61095;Laerm;20450;49.074;9.158;2023-09-12T09:44:17;43.12;39.34;57.77;;
61095;Laerm;20450;49.074;9.158;2023-09-12T09:46:45;43.51;39.58;55.22;;
61095;Laerm;20450;49.074;9.158;2023-09-12T09:49:15;43.13;40.03;52.42;;
61095;Laerm;20450;49.074;9.158;2023-09-12T09:51:43;43.66;41.53;53.28;;
61095;Laerm;20450;49.074;9.158;2023-09-12T09:54:12;42.86;39.21;49.03;;
61095;Laerm;20450;49.074;9.158;2023-09-12T09:56:46;44.33;39.34;52.92;;
61095;Laerm;20450;49.074;9.158;2023-09-12T09:59:19;45.37;40.13;54.19;;
61095;Laerm;20450;49.074;9.158;2023-09-12T10:01:50;43.13;39.21;66.56;;
61095;Laerm;20450;49.074;9.158;2023-09-12T10:04:20;42.35;38.37;54.69;;
61095;Laerm;20450;49.074;9.158;2023-09-12T10:06:51;43.52;38.52;49.67;;
61095;Laerm;20450;49.074;9.158;2023-09-12T10:09:23;42.38;38.95;47.24;;
61095;Laerm;20450;49.074;9.158;2023-09-12T10:11:55;43.44;38.95;56.80;;
61095;Laerm;20450;49.074;9.158;2023-09-12T10:14:30;43.15;39.70;51.28;;
61095;Laerm;20450;49.074;9.158;2023-09-12T10:17:23;42.51;38.95;49.59;;
61095;Laerm;20450;49.074;9.158;2023-09-12T10:20:11;42.68;39.21;65.99;;
61095;Laerm;20450;49.074;9.158;2023-09-12T10:22:52;41.77;39.46;46.05;;
61095;Laerm;20450;49.074;9.158;2023-09-12T10:25:28;42.37;39.92;51.53;;
61095;Laerm;20450;49.074;9.158;2023-09-12T10:28:22;42.93;40.43;52.40;;
61095;Laerm;20450;49.074;9.158;2023-09-12T10:30:54;43.32;39.34;52.37;;
61095;Laerm;20450;49.074;9.158;2023-09-12T10:33:24;42.85;39.21;52.85;;
61095;Laerm;20450;49.074;9.158;2023-09-12T10:36:09;43.02;39.21;54.79;;
61095;Laerm;20450;49.074;9.158;2023-09-12T10:38:42;43.02;38.37;52.34;;
61095;Laerm;20450;49.074;9.158;2023-09-12T10:41:38;43.58;39.46;52.09;;
61095;Laerm;20450;49.074;9.158;2023-09-12T10:44:20;43.84;40.03;60.03;;
61095;Laerm;20450;49.074;9.158;2023-09-12T10:46:58;42.92;38.95;56.36;;
61095;Laerm;20450;49.074;9.158;2023-09-12T10:49:28;43.47;39.58;54.32;;
61095;Laerm;20450;49.074;9.158;2023-09-12T10:52:09;42.70;38.21;52.70;;
61095;Laerm;20450;49.074;9.158;2023-09-12T10:54:40;42.42;40.23;47.86;;
61095;Laerm;20450;49.074;9.158;2023-09-12T10:57:11;42.95;40.23;54.79;;
61095;Laerm;20450;49.074;9.158;2023-09-12T11:00:16;47.40;39.58;61.59;;
61095;Laerm;20450;49.074;9.158;2023-09-12T11:02:47;45.14;39.70;60.36;;
61095;Laerm;20450;49.074;9.158;2023-09-12T11:05:37;42.94;39.58;54.11;;
61095;Laerm;20450;49.074;9.158;2023-09-12T11:08:18;41.55;38.67;46.13;;
61095;Laerm;20450;49.074;9.158;2023-09-12T11:11:21;42.92;39.92;48.92;;
61095;Laerm;20450;49.074;9.158;2023-09-12T11:14:10;42.92;39.92;49.24;;
61095;Laerm;20450;49.074;9.158;2023-09-12T11:16:39;43.69;39.34;53.39;;
61095;Laerm;20450;49.074;9.158;2023-09-12T11:19:20;42.89;39.70;65.61;;
61095;Laerm;20450;49.074;9.158;2023-09-12T11:21:56;44.08;40.33;62.73;;
61095;Laerm;20450;49.074;9.158;2023-09-12T11:24:28;43.23;38.81;53.82;;
61095;Laerm;20450;49.074;9.158;2023-09-12T11:27:23;44.28;37.88;53.58;;
61095;Laerm;20450;49.074;9.158;2023-09-12T11:30:04;45.01;42.53;57.23;;
61095;Laerm;20450;49.074;9.158;2023-09-12T11:32:58;46.11;42.35;59.45;;
61095;Laerm;20450;49.074;9.158;2023-09-12T11:35:28;47.75;45.17;51.33;;
61095;Laerm;20450;49.074;9.158;2023-09-12T11:38:29;44.11;40.89;54.64;;
61095;Laerm;20450;49.074;9.158;2023-09-12T11:41:08;44.04;41.61;51.28;;
61095;Laerm;20450;49.074;9.158;2023-09-12T11:43:52;43.39;40.13;50.63;;
61095;Laerm;20450;49.074;9.158;2023-09-12T11:46:27;43.05;39.70;58.93;;
61095;Laerm;20450;49.074;9.158;2023-09-12T11:49:01;43.82;40.98;51.40;;
61095;Laerm;20450;49.074;9.158;2023-09-12T11:51:32;43.19;40.43;52.31;;
61095;Laerm;20450;49.074;9.158;2023-09-12T11:54:06;46.41;41.30;51.87;;
61095;Laerm;20450;49.074;9.158;2023-09-12T11:56:38;42.85;39.46;48.61;;
61095;Laerm;20450;49.074;9.158;2023-09-12T11:59:08;45.30;39.46;55.78;;
61095;Laerm;20450;49.074;9.158;2023-09-12T12:01:41;44.12;40.03;54.52;;
61095;Laerm;20450;49.074;9.158;2023-09-12T12:04:14;44.62;41.14;51.02;;
61095;Laerm;20450;49.074;9.158;2023-09-12T12:06:42;44.45;41.22;53.28;;
61095;Laerm;20450;49.074;9.158;2023-09-12T12:09:10;43.10;39.58;50.60;;
61095;Laerm;20450;49.074;9.158;2023-09-12T12:11:37;42.61;39.46;52.30;;
61095;Laerm;20450;49.074;9.158;2023-09-12T12:14:13;42.80;39.46;52.32;;
61095;Laerm;20450;49.074;9.158;2023-09-12T12:16:41;42.87;38.95;49.20;;
61095;Laerm;20450;49.074;9.158;2023-09-12T12:19:08;43.14;38.21;61.24;;
61095;Laerm;20450;49.074;9.158;2023-09-12T12:21:40;42.58;39.21;47.61;;
61095;Laerm;20450;49.074;9.158;2023-09-12T12:24:10;43.10;38.81;52.07;;
61095;Laerm;20450;49.074;9.158;2023-09-12T12:26:40;42.46;38.67;48.90;;
61095;Laerm;20450;49.074;9.158;2023-09-12T12:29:08;42.36;39.08;47.77;;
61095;Laerm;20450;49.074;9.158;2023-09-12T12:31:37;43.15;38.81;56.52;;
61095;Laerm;20450;49.074;9.158;2023-09-12T12:34:06;42.97;39.58;51.44;;
61095;Laerm;20450;49.074;9.158;2023-09-12T12:36:55;43.02;38.81;49.03;;
61095;Laerm;20450;49.074;9.158;2023-09-12T12:39:27;44.03;41.30;51.38;;
61095;Laerm;20450;49.074;9.158;2023-09-12T12:41:55;44.03;42.59;50.71;;
61095;Laerm;20450;49.074;9.158;2023-09-12T12:44:34;43.42;41.06;56.94;;
61095;Laerm;20450;49.074;9.158;2023-09-12T12:47:05;43.06;40.03;52.11;;
61095;Laerm;20450;49.074;9.158;2023-09-12T12:49:36;43.59;40.43;52.42;;
61095;Laerm;20450;49.074;9.158;2023-09-12T12:52:09;47.68;40.23;56.75;;
61095;Laerm;20450;49.074;9.158;2023-09-12T12:54:53;43.34;40.03;53.03;;
61095;Laerm;20450;49.074;9.158;2023-09-12T12:57:23;44.91;42.09;53.24;;
61095;Laerm;20450;49.074;9.158;2023-09-12T12:59:52;43.42;40.33;56.46;;
61095;Laerm;20450;49.074;9.158;2023-09-12T13:02:20;43.30;39.34;54.01;;
61095;Laerm;20450;49.074;9.158;2023-09-12T13:04:47;46.41;40.80;60.96;;
61095;Laerm;20450;49.074;9.158;2023-09-12T13:07:16;42.45;38.52;49.16;;
61095;Laerm;20450;49.074;9.158;2023-09-12T13:09:43;42.49;39.58;49.46;;
61095;Laerm;20450;49.074;9.158;2023-09-12T13:12:14;42.88;37.70;55.09;;
61095;Laerm;20450;49.074;9.158;2023-09-12T13:14:41;43.31;39.81;55.69;;
61095;Laerm;20450;49.074;9.158;2023-09-12T13:17:10;44.03;37.70;65.09;;
61095;Laerm;20450;49.074;9.158;2023-09-12T13:19:37;43.64;39.81;52.28;;
61095;Laerm;20450;49.074;9.158;2023-09-12T13:22:04;42.75;38.67;54.37;;
61095;Laerm;20450;49.074;9.158;2023-09-12T13:24:34;42.13;39.21;47.98;;
61095;Laerm;20450;49.074;9.158;2023-09-12T13:27:02;42.63;39.70;50.88;;
61095;Laerm;20450;49.074;9.158;2023-09-12T13:29:30;43.08;40.43;48.31;;
61095;Laerm;20450;49.074;9.158;2023-09-12T13:31:59;47.46;39.34;73.71;;
61095;Laerm;20450;49.074;9.158;2023-09-12T13:34:26;43.82;40.43;56.62;;
61095;Laerm;20450;49.074;9.158;2023-09-12T13:36:54;43.09;40.33;54.17;;
61095;Laerm;20450;49.074;9.158;2023-09-12T13:39:43;43.12;40.23;50.80;;
61095;Laerm;20450;49.074;9.158;2023-09-12T13:42:10;43.48;39.81;52.85;;
61095;Laerm;20450;49.074;9.158;2023-09-12T13:44:37;42.53;39.46;51.38;;
61095;Laerm;20450;49.074;9.158;2023-09-12T13:47:04;43.38;39.81;50.68;;
61095;Laerm;20450;49.074;9.158;2023-09-12T13:49:31;42.53;40.13;48.74;;
61095;Laerm;20450;49.074;9.158;2023-09-12T13:51:58;43.22;39.92;53.94;;
61095;Laerm;20450;49.074;9.158;2023-09-12T13:54:25;42.26;38.81;51.23;;
61095;Laerm;20450;49.074;9.158;2023-09-12T13:56:54;42.54;38.60;47.22;;
61095;Laerm;20450;49.074;9.158;2023-09-12T13:59:21;44.35;39.70;51.56;;
61095;Laerm;20450;49.074;9.158;2023-09-12T14:01:48;43.91;40.98;57.40;;
61095;Laerm;20450;49.074;9.158;2023-09-12T14:04:15;42.80;40.03;51.11;;
61095;Laerm;20450;49.074;9.158;2023-09-12T14:06:43;42.32;39.21;50.23;;
61095;Laerm;20450;49.074;9.158;2023-09-12T14:09:10;42.35;38.81;48.20;;
61095;Laerm;20450;49.074;9.158;2023-09-12T14:11:38;42.88;40.43;48.29;;